Time;durP1;ratioP1;P1;durP2;ratioP2;P2;SDS_P1;SDS_P2;PMS_P1;PMS_P2;Temp;Humidity;BMP_temperature;BMP_pressure;BME280_temperature;BME280_humidity;BME280_pressure;Samples;Min_cycle;Max_cycle;Signal;HPM_P1;HPM_P2
2023/08/25 05:20:10;;;;;;;6.65;4.80;;;;;;;20.55;100.00;100149.56;5557290;32;202909;-88
2023/08/25 05:23:13;;;;;;;5.60;4.12;;;;;;;20.55;100.00;100149.56;5544574;32;33272;-86
2023/08/25 05:26:16;;;;;;;6.70;4.30;;;;;;;20.09;100.00;100145.84;5548126;32;34727;-86
2023/08/25 05:30:05;;;;;;;5.53;4.30;;;;;;;20.22;100.00;100142.84;5568291;31;91098;-87
2023/08/25 05:33:11;;;;;;;6.53;4.70;;;;;;;20.32;100.00;100149.06;5544598;32;33708;-86
2023/08/25 05:36:14;;;;;;;5.40;4.10;;;;;;;20.32;100.00;100144.53;5545111;32;34000;-86
2023/08/25 05:39:18;;;;;;;5.37;3.87;;;;;;;20.31;100.00;100131.19;5546021;32;33452;-87
2023/08/25 05:42:20;;;;;;;6.32;4.30;;;;;;;20.41;100.00;100115.03;5544221;32;33485;-86
2023/08/25 05:45:23;;;;;;;6.12;4.55;;;;;;;20.51;100.00;100115.81;5544878;32;34005;-87
2023/08/25 05:48:26;;;;;;;7.03;4.50;;;;;;;20.60;100.00;100119.47;5544597;32;33675;-87
2023/08/25 05:51:29;;;;;;;5.57;3.97;;;;;;;20.70;100.00;100141.84;5543892;32;33590;-87
2023/08/25 05:54:32;;;;;;;5.87;4.18;;;;;;;20.74;100.00;100151.34;5544936;32;33567;-87
2023/08/25 05:57:44;;;;;;;4.10;3.47;;;;;;;20.77;100.00;100146.66;5544408;32;34193;-91
2023/08/25 06:00:46;;;;;;;5.68;3.80;;;;;;;20.86;100.00;100170.91;5544301;32;34005;-88
2023/08/25 06:03:49;;;;;;;5.37;4.25;;;;;;;20.90;100.00;100174.12;5556130;32;33614;-88
2023/08/25 06:06:52;;;;;;;6.22;4.55;;;;;;;21.00;100.00;100183.03;5554183;32;33819;-88
2023/08/25 06:09:55;;;;;;;6.87;4.55;;;;;;;21.03;100.00;100184.59;5548167;32;33702;-87
2023/08/25 06:12:57;;;;;;;6.65;4.72;;;;;;;21.09;100.00;100186.69;5547970;32;34593;-86
2023/08/25 06:16:01;;;;;;;7.57;4.20;;;;;;;21.24;100.00;100188.88;5547426;32;34803;-86
2023/08/25 06:19:04;;;;;;;4.30;3.70;;;;;;;21.42;100.00;100180.78;5548229;32;33587;-86
2023/08/25 06:22:10;;;;;;;6.22;4.10;;;;;;;21.67;100.00;100167.53;5548183;32;35449;-85
2023/08/25 06:25:13;;;;;;;7.10;4.30;;;;;;;21.92;100.00;100155.16;5549167;32;33978;-86
2023/08/25 06:28:16;;;;;;;5.18;3.90;;;;;;;21.98;100.00;100156.41;5548924;32;33851;-85
2023/08/25 06:31:18;;;;;;;4.72;3.95;;;;;;;22.26;100.00;100147.28;5548816;32;33802;-86
2023/08/25 06:34:21;;;;;;;5.25;4.03;;;;;;;22.28;100.00;100148.00;5549559;32;34534;-85
2023/08/25 06:37:24;;;;;;;5.53;3.97;;;;;;;22.38;100.00;100153.28;5549097;32;33610;-86
2023/08/25 06:40:27;;;;;;;4.90;4.40;;;;;;;22.41;100.00;100153.81;5539969;32;34906;-85
2023/08/25 06:43:31;;;;;;;5.90;4.40;;;;;;;22.68;100.00;100161.94;5535249;32;33952;-84
2023/08/25 06:46:33;;;;;;;6.35;4.10;;;;;;;22.99;100.00;100158.69;5535520;32;33771;-84
2023/08/25 06:49:37;;;;;;;5.72;4.40;;;;;;;23.19;100.00;100145.75;5535736;32;34450;-84
2023/08/25 06:52:40;;;;;;;5.10;4.15;;;;;;;23.31;100.00;100151.72;5535681;32;34785;-84
2023/08/25 06:55:43;;;;;;;6.57;4.97;;;;;;;23.72;100.00;100155.50;5535276;32;34327;-84
2023/08/25 06:58:46;;;;;;;6.05;4.47;;;;;;;23.92;100.00;100156.88;5536789;32;34085;-85
2023/08/25 07:01:49;;;;;;;6.30;4.43;;;;;;;24.31;100.00;100157.19;5555562;32;34268;-84
2023/08/25 07:04:52;;;;;;;5.35;4.47;;;;;;;24.84;100.00;100154.84;5555361;32;34101;-85
2023/08/25 07:07:55;;;;;;;5.50;3.72;;;;;;;25.13;100.00;100158.81;5555835;32;34079;-85
2023/08/25 07:10:58;;;;;;;6.80;4.47;;;;;;;25.93;99.24;100155.91;5553932;32;34268;-86
2023/08/25 07:14:00;;;;;;;5.43;4.20;;;;;;;26.00;95.37;100166.06;5552468;32;33996;-85
2023/08/25 07:17:03;;;;;;;6.70;4.60;;;;;;;25.98;95.71;100177.09;5552877;32;33679;-86
2023/08/25 07:20:08;;;;;;;5.20;4.37;;;;;;;26.03;93.68;100168.38;5559163;32;34252;-86
2023/08/25 07:23:11;;;;;;;6.28;4.25;;;;;;;25.95;93.90;100169.31;5554417;32;33622;-86
2023/08/25 07:26:14;;;;;;;6.32;4.45;;;;;;;26.07;94.60;100170.56;5555535;32;34055;-86
2023/08/25 07:29:17;;;;;;;5.75;4.37;;;;;;;26.21;94.00;100182.50;5554647;32;34182;-86
2023/08/25 07:32:21;;;;;;;5.75;4.15;;;;;;;26.39;93.21;100169.63;5554975;32;33837;-86
2023/08/25 07:35:26;;;;;;;4.97;4.45;;;;;;;26.69;90.68;100172.37;5559957;32;33437;-85
2023/08/25 07:38:29;;;;;;;4.37;3.80;;;;;;;26.53;91.02;100178.81;5556564;32;35696;-86
2023/08/25 07:41:32;;;;;;;4.57;3.70;;;;;;;26.57;92.28;100182.84;5554896;32;33972;-86
2023/08/25 07:44:37;;;;;;;5.65;3.83;;;;;;;26.75;91.81;100186.03;5557050;32;34184;-86
2023/08/25 07:47:41;;;;;;;5.97;4.30;;;;;;;26.99;89.68;100186.81;5553480;32;33931;-86
2023/08/25 07:50:43;;;;;;;5.55;4.00;;;;;;;27.34;88.73;100169.84;5553710;32;34677;-86
2023/08/25 07:53:46;;;;;;;4.80;4.28;;;;;;;27.10;88.00;100171.03;5553084;32;33598;-86
2023/08/25 07:56:49;;;;;;;6.57;4.40;;;;;;;27.07;86.66;100163.25;5553395;32;34450;-86
2023/08/25 07:59:52;;;;;;;5.25;3.95;;;;;;;27.22;86.84;100171.38;5554666;32;35460;-86
2023/08/25 08:02:54;;;;;;;5.43;4.03;;;;;;;28.04;84.86;100163.84;5563460;32;33798;-86
2023/08/25 08:05:58;;;;;;;7.20;4.70;;;;;;;27.77;81.50;100149.16;5561079;32;34596;-87
2023/08/25 08:09:02;;;;;;;6.53;4.53;;;;;;;28.11;79.61;100147.56;5559613;32;34587;-86
2023/08/25 08:12:05;;;;;;;4.93;4.43;;;;;;;27.80;80.08;100143.31;5553159;32;34159;-91
2023/08/25 08:15:10;;;;;;;5.20;4.55;;;;;;;27.83;80.57;100145.63;5550187;32;33980;-91
2023/08/25 08:18:13;;;;;;;5.62;3.87;;;;;;;27.57;83.91;100145.19;5550703;32;34380;-91
2023/08/25 08:21:16;;;;;;;4.53;3.97;;;;;;;27.85;83.70;100143.53;5550114;32;34701;-88
2023/08/25 08:24:19;;;;;;;5.97;4.40;;;;;;;28.42;82.26;100145.47;5549934;32;33834;-87
2023/08/25 08:27:23;;;;;;;6.12;4.43;;;;;;;28.79;78.40;100152.41;5549878;32;34448;-85
2023/08/25 08:30:26;;;;;;;4.50;3.67;;;;;;;29.02;78.56;100155.87;5550616;32;34033;-85
2023/08/25 08:33:29;;;;;;;7.00;4.10;;;;;;;29.62;74.48;100160.72;5549962;32;33742;-85
2023/08/25 08:36:32;;;;;;;4.57;3.65;;;;;;;30.07;71.79;100154.59;5549296;32;34245;-85
2023/08/25 08:39:37;;;;;;;3.95;3.45;;;;;;;30.53;69.43;100160.28;5549510;32;34709;-85
2023/08/25 08:42:41;;;;;;;4.15;3.42;;;;;;;30.47;69.16;100161.12;5549008;32;33354;-85
2023/08/25 08:45:45;;;;;;;3.67;3.10;;;;;;;31.19;65.26;100157.53;5549644;32;33734;-85
2023/08/25 08:48:50;;;;;;;4.82;3.60;;;;;;;31.40;62.93;100148.16;5549340;32;34322;-86
2023/08/25 08:51:58;;;;;;;3.85;3.22;;;;;;;30.95;61.21;100154.47;5549746;32;33676;-86
2023/08/25 08:55:04;;;;;;;2.92;2.72;;;;;;;32.13;58.71;100147.84;5549615;32;33498;-85
2023/08/25 08:58:07;;;;;;;4.87;3.00;;;;;;;32.29;56.18;100157.41;5552078;32;34617;-86
2023/08/25 09:01:10;;;;;;;3.85;3.35;;;;;;;32.69;54.26;100153.41;5562113;32;33881;-86
2023/08/25 09:04:18;;;;;;;3.03;2.78;;;;;;;33.41;53.93;100159.25;5556249;32;34936;-86
2023/08/25 09:07:26;;;;;;;3.47;3.03;;;;;;;33.14;52.40;100154.97;5550325;32;33744;-86
2023/08/25 09:10:29;;;;;;;3.28;2.97;;;;;;;33.37;51.28;100156.13;5554225;32;33916;-86
2023/08/25 09:13:34;;;;;;;3.05;2.78;;;;;;;33.73;51.27;100150.75;5559679;32;33783;-86
2023/08/25 09:16:40;;;;;;;4.30;3.33;;;;;;;34.04;48.17;100145.22;5562331;32;34249;-87
2023/08/25 09:19:46;;;;;;;3.20;2.90;;;;;;;33.19;47.00;100152.34;5558089;32;34322;-86
2023/08/25 09:22:55;;;;;;;4.15;2.95;;;;;;;33.18;48.15;100149.88;5557440;32;33720;-86
2023/08/25 09:26:04;;;;;;;3.42;3.00;;;;;;;32.87;48.78;100143.50;5557643;32;33497;-85
2023/08/25 09:29:07;;;;;;;3.60;3.30;;;;;;;33.32;47.51;100145.00;5557434;32;33665;-85
2023/08/25 09:32:14;;;;;;;5.70;2.78;;;;;;;34.43;45.17;100139.22;5556331;32;33865;-85
2023/08/25 09:35:21;;;;;;;3.20;2.65;;;;;;;34.63;45.93;100136.91;5555727;32;34067;-85
2023/08/25 09:38:25;;;;;;;2.97;2.67;;;;;;;34.94;43.24;100134.78;5554585;32;34564;-84
2023/08/25 09:41:28;;;;;;;3.60;3.25;;;;;;;34.69;43.01;100132.37;5561988;32;34362;-85
2023/08/25 09:44:32;;;;;;;3.17;2.90;;;;;;;35.04;43.43;100138.84;5554867;32;35015;-85
2023/08/25 09:47:36;;;;;;;3.42;2.95;;;;;;;35.22;42.73;100132.31;5551462;32;33961;-85
2023/08/25 09:50:41;;;;;;;3.47;3.00;;;;;;;36.07;40.16;100136.22;5552392;32;34601;-85
2023/08/25 09:53:48;;;;;;;3.78;2.97;;;;;;;36.34;40.34;100147.41;5553429;32;34774;-89
2023/08/25 09:56:52;;;;;;;3.25;2.78;;;;;;;36.01;39.87;100138.87;5556078;32;33963;-90
2023/08/25 09:59:55;;;;;;;2.87;2.67;;;;;;;35.70;40.61;100127.38;5559660;32;34906;-86
2023/08/25 10:02:59;;;;;;;3.47;3.17;;;;;;;36.19;40.65;100122.34;5559006;32;34696;-86
2023/08/25 10:06:05;;;;;;;2.65;2.45;;;;;;;37.73;36.44;100139.06;5557950;32;33896;-86
2023/08/25 10:09:08;;;;;;;2.90;2.70;;;;;;;38.60;36.31;100131.59;5540896;32;33954;-86
2023/08/25 10:12:13;;;;;;;2.60;2.40;;;;;;;41.14;30.88;100126.94;5553993;32;33898;-86
2023/08/25 10:15:17;;;;;;;2.62;2.42;;;;;;;39.67;31.56;100113.81;5554916;32;34775;-86
2023/08/25 10:18:23;;;;;;;2.00;1.90;;;;;;;40.95;29.41;100119.28;5557272;32;33838;-86
2023/08/25 10:21:26;;;;;;;2.78;2.40;;;;;;;39.80;30.86;100116.00;5556719;32;33721;-85
2023/08/25 10:24:31;;;;;;;2.58;2.37;;;;;;;37.77;34.13;100119.16;5555820;32;33638;-86
2023/08/25 10:27:34;;;;;;;2.97;2.15;;;;;;;37.74;35.11;100115.81;5555325;32;33436;-85
2023/08/25 10:30:38;;;;;;;2.55;2.35;;;;;;;37.48;34.88;100110.06;5558870;32;34103;-85
2023/08/25 10:33:46;;;;;;;3.12;2.45;;;;;;;37.65;34.66;100111.03;5558136;32;33720;-85
2023/08/25 10:36:50;;;;;;;2.78;2.25;;;;;;;37.38;34.89;100107.19;5555109;32;33997;-85
2023/08/25 10:39:56;;;;;;;2.62;2.42;;;;;;;37.16;34.91;100102.56;5557207;32;34547;-85
2023/08/25 10:43:01;;;;;;;2.28;2.10;;;;;;;36.75;35.41;100099.34;5556092;32;34711;-86
2023/08/25 10:46:08;;;;;;;2.40;2.20;;;;;;;39.28;32.50;100109.59;5557387;32;34088;-85
2023/08/25 10:49:12;;;;;;;2.28;2.08;;;;;;;42.80;26.48;100114.22;5555286;32;33425;-86
2023/08/25 10:52:16;;;;;;;1.87;1.77;;;;;;;43.25;25.92;100105.47;5555990;32;33997;-84
2023/08/25 10:55:30;;;;;;;3.70;1.85;;;;;;;40.87;27.07;100097.66;5562115;32;33627;-84
2023/08/25 10:58:33;;;;;;;1.77;1.67;;;;;;;40.59;28.40;100097.22;5559166;32;33863;-84
2023/08/25 11:01:36;;;;;;;2.95;2.10;;;;;;;39.36;30.56;100100.75;5557449;32;33994;-85
2023/08/25 11:04:40;;;;;;;1.85;1.75;;;;;;;38.03;32.05;100089.72;5556216;32;34086;-85
2023/08/25 11:07:44;;;;;;;2.20;2.00;;;;;;;37.41;33.10;100090.09;5554654;32;33921;-85
2023/08/25 11:10:47;;;;;;;1.98;1.80;;;;;;;37.28;33.92;100096.03;5553922;32;33796;-85
2023/08/25 11:13:53;;;;;;;2.12;2.00;;;;;;;37.69;34.28;100090.88;5553031;32;33819;-86
2023/08/25 11:16:57;;;;;;;2.00;1.80;;;;;;;38.15;32.39;100097.81;5553386;32;34006;-86
2023/08/25 11:20:00;;;;;;;1.98;1.87;;;;;;;38.61;31.15;100088.09;5554233;32;33872;-85
2023/08/25 11:23:03;;;;;;;2.17;1.98;;;;;;;39.71;29.84;100089.94;5556318;32;34338;-84
2023/08/25 11:26:13;;;;;;;2.05;1.85;;;;;;;38.52;31.67;100093.31;5555003;32;34388;-85
2023/08/25 11:29:17;;;;;;;1.98;1.77;;;;;;;37.18;31.91;100080.19;5555055;32;34039;-85
2023/08/25 11:32:20;;;;;;;1.60;1.50;;;;;;;37.00;33.39;100073.91;5555100;32;34678;-89
2023/08/25 11:35:23;;;;;;;1.50;1.40;;;;;;;36.70;33.79;100074.41;5555226;32;33920;-89
2023/08/25 11:38:29;;;;;;;1.62;1.52;;;;;;;36.47;33.49;100076.31;5558129;32;33965;-85
2023/08/25 11:41:32;;;;;;;1.42;1.33;;;;;;;36.74;32.78;100070.06;5557955;32;33957;-86
